sensor_id;sensor_type;location;lat;lon;timestamp;pressure;altitude;pressure_sealevel;temperature;humidity
24486;BME280;13449;49.374;8.584;2023-02-19T00:00:14;101058.69;;;10.10;84.96
24486;BME280;13449;49.374;8.584;2023-02-19T00:02:40;101068.94;;;10.16;84.52
24486;BME280;13449;49.374;8.584;2023-02-19T00:05:11;101065.56;;;10.14;84.87
24486;BME280;13449;49.374;8.584;2023-02-19T00:07:37;101068.28;;;10.14;84.46
24486;BME280;13449;49.374;8.584;2023-02-19T00:10:04;101061.28;;;10.12;84.60
24486;BME280;13449;49.374;8.584;2023-02-19T00:12:31;101052.03;;;10.13;84.61
24486;BME280;13449;49.374;8.584;2023-02-19T00:14:57;101054.09;;;10.11;84.89
24486;BME280;13449;49.374;8.584;2023-02-19T00:17:24;101046.28;;;10.08;85.46
24486;BME280;13449;49.374;8.584;2023-02-19T00:20:01;101044.56;;;10.07;85.33
24486;BME280;13449;49.374;8.584;2023-02-19T00:22:27;101038.41;;;10.05;85.59
24486;BME280;13449;49.374;8.584;2023-02-19T00:24:58;101050.34;;;10.04;86.03
24486;BME280;13449;49.374;8.584;2023-02-19T00:27:27;101055.28;;;10.00;86.75
24486;BME280;13449;49.374;8.584;2023-02-19T00:29:53;101046.94;;;10.02;86.44
24486;BME280;13449;49.374;8.584;2023-02-19T00:32:20;101045.25;;;10.01;86.89
24486;BME280;13449;49.374;8.584;2023-02-19T00:34:46;101035.16;;;10.01;86.89
24486;BME280;13449;49.374;8.584;2023-02-19T00:37:16;101050.00;;;9.99;87.32
24486;BME280;13449;49.374;8.584;2023-02-19T00:39:42;101056.31;;;9.99;87.26
24486;BME280;13449;49.374;8.584;2023-02-19T00:42:15;101039.94;;;9.99;87.68
24486;BME280;13449;49.374;8.584;2023-02-19T00:44:44;101055.28;;;10.00;87.67
24486;BME280;13449;49.374;8.584;2023-02-19T00:47:16;101051.00;;;9.98;87.68
24486;BME280;13449;49.374;8.584;2023-02-19T00:49:43;101056.81;;;10.03;87.27
24486;BME280;13449;49.374;8.584;2023-02-19T00:52:09;101042.84;;;9.98;87.77
24486;BME280;13449;49.374;8.584;2023-02-19T00:54:42;101028.91;;;10.01;87.89
24486;BME280;13449;49.374;8.584;2023-02-19T00:57:08;101030.06;;;9.98;87.80
24486;BME280;13449;49.374;8.584;2023-02-19T00:59:35;101035.53;;;9.98;88.38
24486;BME280;13449;49.374;8.584;2023-02-19T01:02:07;101036.38;;;9.99;88.20
24486;BME280;13449;49.374;8.584;2023-02-19T01:04:39;101043.88;;;9.97;88.67
24486;BME280;13449;49.374;8.584;2023-02-19T01:07:05;101044.69;;;9.97;88.34
24486;BME280;13449;49.374;8.584;2023-02-19T01:09:38;101041.16;;;9.97;88.80
24486;BME280;13449;49.374;8.584;2023-02-19T01:12:07;101046.59;;;9.97;88.72
24486;BME280;13449;49.374;8.584;2023-02-19T01:14:36;101042.16;;;9.96;88.93
24486;BME280;13449;49.374;8.584;2023-02-19T01:17:06;101055.09;;;9.94;89.49
24486;BME280;13449;49.374;8.584;2023-02-19T01:19:35;101054.41;;;9.92;89.38
24486;BME280;13449;49.374;8.584;2023-02-19T01:22:01;101051.69;;;9.92;89.75
24486;BME280;13449;49.374;8.584;2023-02-19T01:24:30;101051.19;;;9.88;90.04
24486;BME280;13449;49.374;8.584;2023-02-19T01:27:08;101069.38;;;9.88;90.42
24486;BME280;13449;49.374;8.584;2023-02-19T01:29:41;101065.81;;;9.87;90.43
24486;BME280;13449;49.374;8.584;2023-02-19T01:32:08;101066.81;;;9.86;90.60
24486;BME280;13449;49.374;8.584;2023-02-19T01:34:37;101069.53;;;9.86;90.88
24486;BME280;13449;49.374;8.584;2023-02-19T01:37:04;101064.28;;;9.85;90.91
24486;BME280;13449;49.374;8.584;2023-02-19T01:39:31;101051.66;;;9.84;91.32
24486;BME280;13449;49.374;8.584;2023-02-19T01:41:57;101032.09;;;9.80;92.40
24486;BME280;13449;49.374;8.584;2023-02-19T01:46:59;101036.31;;;9.66;96.25
24486;BME280;13449;49.374;8.584;2023-02-19T01:49:37;101034.97;;;9.62;96.58
24486;BME280;13449;49.374;8.584;2023-02-19T01:54:42;101031.88;;;9.57;96.95
24486;BME280;13449;49.374;8.584;2023-02-19T01:57:14;101041.91;;;9.57;97.33
24486;BME280;13449;49.374;8.584;2023-02-19T01:59:46;101040.03;;;9.57;97.18
24486;BME280;13449;49.374;8.584;2023-02-19T02:02:15;101047.34;;;9.57;97.28
24486;BME280;13449;49.374;8.584;2023-02-19T02:04:44;101042.09;;;9.55;97.27
24486;BME280;13449;49.374;8.584;2023-02-19T02:07:10;101038.66;;;9.53;98.33
24486;BME280;13449;49.374;8.584;2023-02-19T02:09:58;101022.00;;;9.48;98.99
24486;BME280;13449;49.374;8.584;2023-02-19T02:12:43;101022.00;;;9.48;99.51
24486;BME280;13449;49.374;8.584;2023-02-19T02:15:12;101020.44;;;9.46;100.00
24486;BME280;13449;49.374;8.584;2023-02-19T02:17:52;101017.91;;;9.44;100.00
24486;BME280;13449;49.374;8.584;2023-02-19T02:31:40;101008.16;;;9.42;100.00
24486;BME280;13449;49.374;8.584;2023-02-19T02:34:37;101002.91;;;9.40;100.00
24486;BME280;13449;49.374;8.584;2023-02-19T02:37:12;100996.63;;;9.40;100.00
24486;BME280;13449;49.374;8.584;2023-02-19T02:39:41;100993.19;;;9.38;100.00
24486;BME280;13449;49.374;8.584;2023-02-19T02:42:12;100993.19;;;9.38;100.00
24486;BME280;13449;49.374;8.584;2023-02-19T02:44:55;100994.38;;;9.35;100.00
24486;BME280;13449;49.374;8.584;2023-02-19T02:47:51;100981.63;;;9.36;100.00
24486;BME280;13449;49.374;8.584;2023-02-19T02:50:24;100982.63;;;9.35;100.00
24486;BME280;13449;49.374;8.584;2023-02-19T02:52:59;100979.91;;;9.35;100.00
24486;BME280;13449;49.374;8.584;2023-02-19T02:55:51;100977.19;;;9.35;100.00
24486;BME280;13449;49.374;8.584;2023-02-19T02:58:22;100986.22;;;9.35;100.00
24486;BME280;13449;49.374;8.584;2023-02-19T03:00:55;100989.78;;;9.36;100.00
24486;BME280;13449;49.374;8.584;2023-02-19T03:03:52;100984.50;;;9.34;100.00
24486;BME280;13449;49.374;8.584;2023-02-19T03:06:20;100989.28;;;9.32;100.00
24486;BME280;13449;49.374;8.584;2023-02-19T03:09:01;100989.28;;;9.32;100.00
24486;BME280;13449;49.374;8.584;2023-02-19T03:11:33;100990.28;;;9.31;100.00
24486;BME280;13449;49.374;8.584;2023-02-19T03:14:39;100993.34;;;9.28;100.00
24486;BME280;13449;49.374;8.584;2023-02-19T03:17:37;100985.53;;;9.25;100.00
24486;BME280;13449;49.374;8.584;2023-02-19T03:20:24;100986.00;;;9.20;100.00
24486;BME280;13449;49.374;8.584;2023-02-19T03:22:58;100985.31;;;9.18;100.00
24486;BME280;13449;49.374;8.584;2023-02-19T03:25:29;100993.66;;;9.17;100.00
24486;BME280;13449;49.374;8.584;2023-02-19T03:28:29;100993.78;;;9.15;100.00
24486;BME280;13449;49.374;8.584;2023-02-19T03:31:18;101005.72;;;9.14;100.00
24486;BME280;13449;49.374;8.584;2023-02-19T03:33:53;101006.88;;;9.12;100.00
24486;BME280;13449;49.374;8.584;2023-02-19T03:36:29;101008.06;;;9.09;100.00
24486;BME280;13449;49.374;8.584;2023-02-19T03:39:08;100995.81;;;9.05;100.00
24486;BME280;13449;49.374;8.584;2023-02-19T03:44:26;101003.78;;;8.99;100.00
24486;BME280;13449;49.374;8.584;2023-02-19T03:47:04;101006.81;;;8.96;100.00
24486;BME280;13449;49.374;8.584;2023-02-19T03:49:53;101012.56;;;8.93;100.00
24486;BME280;13449;49.374;8.584;2023-02-19T03:52:37;101005.75;;;8.89;100.00
24486;BME280;13449;49.374;8.584;2023-02-19T03:55:15;101000.63;;;8.86;100.00
24486;BME280;13449;49.374;8.584;2023-02-19T03:58:02;100992.81;;;8.83;100.00
24486;BME280;13449;49.374;8.584;2023-02-19T04:00:56;100992.13;;;8.81;100.00
24486;BME280;13449;49.374;8.584;2023-02-19T04:06:41;101005.03;;;8.79;100.00
24486;BME280;13449;49.374;8.584;2023-02-19T04:09:11;100989.72;;;8.78;100.00
24486;BME280;13449;49.374;8.584;2023-02-19T04:11:43;100990.03;;;8.74;100.00
24486;BME280;13449;49.374;8.584;2023-02-19T04:14:19;100997.19;;;8.76;100.00
24486;BME280;13449;49.374;8.584;2023-02-19T04:17:05;101001.09;;;8.73;100.00
24486;BME280;13449;49.374;8.584;2023-02-19T04:19:34;101000.91;;;8.74;100.00
24486;BME280;13449;49.374;8.584;2023-02-19T04:22:09;101004.50;;;8.75;100.00
24486;BME280;13449;49.374;8.584;2023-02-19T04:24:51;100998.53;;;8.71;100.00
24486;BME280;13449;49.374;8.584;2023-02-19T04:27:19;100995.81;;;8.71;100.00
24486;BME280;13449;49.374;8.584;2023-02-19T04:29:48;100994.09;;;8.70;100.00
24486;BME280;13449;49.374;8.584;2023-02-19T04:32:17;100997.84;;;8.69;100.00
24486;BME280;13449;49.374;8.584;2023-02-19T04:34:47;101001.56;;;8.68;100.00
24486;BME280;13449;49.374;8.584;2023-02-19T04:37:35;101007.88;;;8.69;100.00
24486;BME280;13449;49.374;8.584;2023-02-19T04:40:02;101000.72;;;8.68;100.00
24486;BME280;13449;49.374;8.584;2023-02-19T04:42:29;100988.84;;;8.69;100.00
24486;BME280;13449;49.374;8.584;2023-02-19T04:45:02;100992.41;;;8.69;100.00
24486;BME280;13449;49.374;8.584;2023-02-19T04:47:31;101003.97;;;8.71;100.00
24486;BME280;13449;49.374;8.584;2023-02-19T04:49:59;101017.72;;;8.70;100.00
24486;BME280;13449;49.374;8.584;2023-02-19T04:52:28;101014.16;;;8.69;100.00
24486;BME280;13449;49.374;8.584;2023-02-19T04:54:58;101017.56;;;8.71;100.00
24486;BME280;13449;49.374;8.584;2023-02-19T04:57:24;101017.56;;;8.71;100.00
24486;BME280;13449;49.374;8.584;2023-02-19T04:59:53;101014.84;;;8.71;100.00
24486;BME280;13449;49.374;8.584;2023-02-19T05:02:23;101017.56;;;8.71;100.00
24486;BME280;13449;49.374;8.584;2023-02-19T05:07:44;101020.94;;;8.73;100.00
24486;BME280;13449;49.374;8.584;2023-02-19T05:10:12;101022.00;;;8.72;100.00
24486;BME280;13449;49.374;8.584;2023-02-19T05:12:39;101013.13;;;8.70;100.00
24486;BME280;13449;49.374;8.584;2023-02-19T05:15:06;101016.03;;;8.69;100.00
24486;BME280;13449;49.374;8.584;2023-02-19T05:17:33;101027.06;;;8.67;100.00
24486;BME280;13449;49.374;8.584;2023-02-19T05:20:19;101025.34;;;8.66;100.00
24486;BME280;13449;49.374;8.584;2023-02-19T05:22:51;101020.75;;;8.67;100.00
24486;BME280;13449;49.374;8.584;2023-02-19T05:25:17;101018.03;;;8.67;100.00
24486;BME280;13449;49.374;8.584;2023-02-19T05:27:44;101017.88;;;8.68;100.00
24486;BME280;13449;49.374;8.584;2023-02-19T05:30:11;101006.31;;;8.66;100.00
24486;BME280;13449;49.374;8.584;2023-02-19T05:32:42;101016.16;;;8.67;100.00
24486;BME280;13449;49.374;8.584;2023-02-19T05:35:12;101016.34;;;8.66;100.00
24486;BME280;13449;49.374;8.584;2023-02-19T05:37:44;101024.50;;;8.66;100.00
24486;BME280;13449;49.374;8.584;2023-02-19T05:40:13;101024.66;;;8.64;100.00
24486;BME280;13449;49.374;8.584;2023-02-19T05:42:44;101026.66;;;8.62;100.00
24486;BME280;13449;49.374;8.584;2023-02-19T05:45:16;101026.84;;;8.61;100.00
24486;BME280;13449;49.374;8.584;2023-02-19T05:47:45;101022.25;;;8.61;100.00
24486;BME280;13449;49.374;8.584;2023-02-19T05:50:34;101028.72;;;8.60;100.00
24486;BME280;13449;49.374;8.584;2023-02-19T05:53:05;101023.59;;;8.57;100.00
24486;BME280;13449;49.374;8.584;2023-02-19T05:55:34;101022.59;;;8.58;100.00
24486;BME280;13449;49.374;8.584;2023-02-19T05:58:02;101028.03;;;8.58;100.00
24486;BME280;13449;49.374;8.584;2023-02-19T06:00:29;101020.69;;;8.59;100.00
24486;BME280;13449;49.374;8.584;2023-02-19T06:02:57;101026.31;;;8.57;100.00
24486;BME280;13449;49.374;8.584;2023-02-19T06:05:24;101036.31;;;8.57;100.00
24486;BME280;13449;49.374;8.584;2023-02-19T06:07:50;101036.66;;;8.54;100.00
24486;BME280;13449;49.374;8.584;2023-02-19T06:10:17;101038.50;;;8.53;100.00
24486;BME280;13449;49.374;8.584;2023-02-19T06:12:44;101042.09;;;8.54;100.00
24486;BME280;13449;49.374;8.584;2023-02-19T06:15:10;101058.53;;;8.52;100.00
24486;BME280;13449;49.374;8.584;2023-02-19T06:17:54;101063.13;;;8.52;100.00
24486;BME280;13449;49.374;8.584;2023-02-19T06:20:21;101070.28;;;8.53;100.00
24486;BME280;13449;49.374;8.584;2023-02-19T06:23:02;101069.59;;;8.51;100.00
24486;BME280;13449;49.374;8.584;2023-02-19T06:25:28;101063.31;;;8.50;100.00
24486;BME280;13449;49.374;8.584;2023-02-19T06:27:55;101063.31;;;8.50;100.00
24486;BME280;13449;49.374;8.584;2023-02-19T06:30:24;101068.34;;;8.45;100.00
24486;BME280;13449;49.374;8.584;2023-02-19T06:32:51;101071.75;;;8.47;100.00
24486;BME280;13449;49.374;8.584;2023-02-19T06:35:19;101069.03;;;8.47;100.00
24486;BME280;13449;49.374;8.584;2023-02-19T06:37:46;101072.78;;;8.46;100.00
24486;BME280;13449;49.374;8.584;2023-02-19T06:40:13;101081.47;;;8.50;100.00
24486;BME280;13449;49.374;8.584;2023-02-19T06:42:42;101082.63;;;8.47;100.00
24486;BME280;13449;49.374;8.584;2023-02-19T06:45:15;101078.22;;;8.46;100.00
24486;BME280;13449;49.374;8.584;2023-02-19T06:47:49;101093.19;;;8.50;100.00
24486;BME280;13449;49.374;8.584;2023-02-19T06:50:25;101078.56;;;8.51;100.00
24486;BME280;13449;49.374;8.584;2023-02-19T06:52:55;101088.44;;;8.52;100.00
24486;BME280;13449;49.374;8.584;2023-02-19T06:55:25;101094.72;;;8.53;100.00
24486;BME280;13449;49.374;8.584;2023-02-19T06:57:51;101093.25;;;8.58;100.00
24486;BME280;13449;49.374;8.584;2023-02-19T07:00:18;101086.97;;;8.58;100.00
24486;BME280;13449;49.374;8.584;2023-02-19T07:02:45;101100.56;;;8.58;100.00
24486;BME280;13449;49.374;8.584;2023-02-19T07:05:11;101102.09;;;8.60;100.00
24486;BME280;13449;49.374;8.584;2023-02-19T07:07:38;101102.50;;;8.65;100.00
24486;BME280;13449;49.374;8.584;2023-02-19T07:10:05;101101.44;;;8.66;100.00
24486;BME280;13449;49.374;8.584;2023-02-19T07:12:34;101109.13;;;8.71;100.00
24486;BME280;13449;49.374;8.584;2023-02-19T07:15:01;101111.72;;;8.72;100.00
24486;BME280;13449;49.374;8.584;2023-02-19T07:17:29;101121.25;;;8.77;100.00
24486;BME280;13449;49.374;8.584;2023-02-19T07:20:05;101128.25;;;8.79;100.00
24486;BME280;13449;49.374;8.584;2023-02-19T07:22:32;101128.44;;;8.86;100.00
24486;BME280;13449;49.374;8.584;2023-02-19T07:25:00;101138.53;;;8.93;100.00
24486;BME280;13449;49.374;8.584;2023-02-19T07:27:27;101148.41;;;8.94;100.00
24486;BME280;13449;49.374;8.584;2023-02-19T07:29:56;101146.91;;;9.00;100.00
24486;BME280;13449;49.374;8.584;2023-02-19T07:32:23;101145.75;;;9.02;100.00
24486;BME280;13449;49.374;8.584;2023-02-19T07:34:49;101149.69;;;9.08;100.00
24486;BME280;13449;49.374;8.584;2023-02-19T07:37:18;101158.91;;;9.15;100.00
24486;BME280;13449;49.374;8.584;2023-02-19T07:39:47;101151.13;;;9.20;100.00
24486;BME280;13449;49.374;8.584;2023-02-19T07:42:19;101153.00;;;9.19;100.00
24486;BME280;13449;49.374;8.584;2023-02-19T07:44:51;101149.31;;;9.29;100.00
24486;BME280;13449;49.374;8.584;2023-02-19T07:47:20;101148.84;;;9.33;100.00
24486;BME280;13449;49.374;8.584;2023-02-19T07:49:47;101134.91;;;9.36;100.00
24486;BME280;13449;49.374;8.584;2023-02-19T07:52:18;101136.97;;;9.42;100.00
24486;BME280;13449;49.374;8.584;2023-02-19T07:54:48;101134.94;;;9.44;100.00
24486;BME280;13449;49.374;8.584;2023-02-19T07:57:17;101140.38;;;9.44;100.00
24486;BME280;13449;49.374;8.584;2023-02-19T07:59:43;101138.50;;;9.45;100.00
24486;BME280;13449;49.374;8.584;2023-02-19T08:02:18;101149.09;;;9.48;100.00
24486;BME280;13449;49.374;8.584;2023-02-19T08:05:04;101147.03;;;9.50;100.00
24486;BME280;13449;49.374;8.584;2023-02-19T08:07:33;101151.28;;;9.52;100.00
24486;BME280;13449;49.374;8.584;2023-02-19T08:10:00;101149.94;;;9.56;100.00
24486;BME280;13449;49.374;8.584;2023-02-19T08:12:54;101133.31;;;9.67;100.00
24486;BME280;13449;49.374;8.584;2023-02-19T08:15:42;101141.84;;;9.73;100.00
24486;BME280;13449;49.374;8.584;2023-02-19T08:18:09;101142.22;;;9.78;100.00
24486;BME280;13449;49.374;8.584;2023-02-19T08:20:37;101140.19;;;9.80;100.00
24486;BME280;13449;49.374;8.584;2023-02-19T08:23:04;101148.38;;;9.88;100.00
24486;BME280;13449;49.374;8.584;2023-02-19T08:25:32;101163.75;;;9.97;100.00
24486;BME280;13449;49.374;8.584;2023-02-19T08:27:58;101168.56;;;10.11;100.00
24486;BME280;13449;49.374;8.584;2023-02-19T08:30:31;101169.22;;;10.13;100.00
24486;BME280;13449;49.374;8.584;2023-02-19T08:33:00;101178.13;;;10.15;100.00
24486;BME280;13449;49.374;8.584;2023-02-19T08:35:29;101168.91;;;10.16;100.00
24486;BME280;13449;49.374;8.584;2023-02-19T08:37:57;101176.44;;;10.22;99.74
24486;BME280;13449;49.374;8.584;2023-02-19T08:40:29;101174.25;;;10.26;97.17
24486;BME280;13449;49.374;8.584;2023-02-19T08:43:03;101183.94;;;10.28;95.99
24486;BME280;13449;49.374;8.584;2023-02-19T08:45:45;101181.59;;;10.33;96.68
24486;BME280;13449;49.374;8.584;2023-02-19T08:48:13;101196.59;;;10.37;94.58
24486;BME280;13449;49.374;8.584;2023-02-19T08:50:40;101193.19;;;10.43;94.12
24486;BME280;13449;49.374;8.584;2023-02-19T08:53:06;101192.34;;;10.51;94.44
24486;BME280;13449;49.374;8.584;2023-02-19T08:55:36;101202.41;;;10.58;94.12
24486;BME280;13449;49.374;8.584;2023-02-19T08:58:03;101216.75;;;10.60;93.41
24486;BME280;13449;49.374;8.584;2023-02-19T09:00:30;101218.78;;;10.66;92.60
24486;BME280;13449;49.374;8.584;2023-02-19T09:02:57;101227.47;;;10.70;91.25
24486;BME280;13449;49.374;8.584;2023-02-19T09:05:26;101230.38;;;10.77;90.79
24486;BME280;13449;49.374;8.584;2023-02-19T09:07:53;101227.00;;;10.83;90.69
24486;BME280;13449;49.374;8.584;2023-02-19T09:10:20;101235.50;;;10.88;89.05
24486;BME280;13449;49.374;8.584;2023-02-19T09:12:46;101242.53;;;10.98;89.20
24486;BME280;13449;49.374;8.584;2023-02-19T09:15:13;101244.91;;;11.09;89.57
24486;BME280;13449;49.374;8.584;2023-02-19T09:17:40;101243.53;;;11.22;89.31
24486;BME280;13449;49.374;8.584;2023-02-19T09:20:07;101256.66;;;11.34;89.83
24486;BME280;13449;49.374;8.584;2023-02-19T09:22:46;101255.28;;;11.38;87.61
24486;BME280;13449;49.374;8.584;2023-02-19T09:25:12;101260.56;;;11.48;88.46
24486;BME280;13449;49.374;8.584;2023-02-19T09:27:41;101265.50;;;11.60;88.09
24486;BME280;13449;49.374;8.584;2023-02-19T09:30:08;101266.16;;;11.71;87.74
24486;BME280;13449;49.374;8.584;2023-02-19T09:32:43;101261.41;;;11.73;86.47
24486;BME280;13449;49.374;8.584;2023-02-19T09:35:14;101265.66;;;11.83;85.57
24486;BME280;13449;49.374;8.584;2023-02-19T09:37:43;101272.84;;;11.84;84.89
24486;BME280;13449;49.374;8.584;2023-02-19T09:40:13;101270.41;;;11.89;86.35
24486;BME280;13449;49.374;8.584;2023-02-19T09:42:48;101280.19;;;11.76;86.02
24486;BME280;13449;49.374;8.584;2023-02-19T09:45:22;101277.44;;;11.68;86.45
24486;BME280;13449;49.374;8.584;2023-02-19T09:47:56;101293.53;;;11.54;84.29
24486;BME280;13449;49.374;8.584;2023-02-19T09:50:46;101285.84;;;11.50;84.32
24486;BME280;13449;49.374;8.584;2023-02-19T09:53:23;101285.13;;;11.48;83.13
24486;BME280;13449;49.374;8.584;2023-02-19T09:55:56;101296.25;;;11.54;81.13
24486;BME280;13449;49.374;8.584;2023-02-19T09:58:35;101283.41;;;11.63;83.37
24486;BME280;13449;49.374;8.584;2023-02-19T10:01:04;101302.72;;;11.70;80.42
24486;BME280;13449;49.374;8.584;2023-02-19T10:03:36;101300.31;;;11.83;80.73
24486;BME280;13449;49.374;8.584;2023-02-19T10:06:13;101290.59;;;11.88;81.59
24486;BME280;13449;49.374;8.584;2023-02-19T10:08:44;101283.75;;;11.84;82.90
24486;BME280;13449;49.374;8.584;2023-02-19T10:11:11;101281.19;;;11.91;86.11
24486;BME280;13449;49.374;8.584;2023-02-19T10:13:50;101281.50;;;11.96;85.11
24486;BME280;13449;49.374;8.584;2023-02-19T10:16:23;101275.50;;;12.00;86.29
24486;BME280;13449;49.374;8.584;2023-02-19T10:18:59;101275.19;;;11.95;85.52
24486;BME280;13449;49.374;8.584;2023-02-19T10:21:28;101275.69;;;11.99;84.38
24486;BME280;13449;49.374;8.584;2023-02-19T10:24:01;101277.72;;;12.05;84.02
24486;BME280;13449;49.374;8.584;2023-02-19T10:26:34;101269.63;;;12.20;83.75
24486;BME280;13449;49.374;8.584;2023-02-19T10:29:05;101276.47;;;12.16;82.86
24486;BME280;13449;49.374;8.584;2023-02-19T10:31:34;101268.97;;;12.18;81.82
24486;BME280;13449;49.374;8.584;2023-02-19T10:34:04;101275.13;;;12.11;82.39
24486;BME280;13449;49.374;8.584;2023-02-19T10:36:46;101277.84;;;12.11;81.38
24486;BME280;13449;49.374;8.584;2023-02-19T10:41:50;101274.63;;;12.00;80.53
24486;BME280;13449;49.374;8.584;2023-02-19T10:44:25;101290.09;;;12.24;80.98
24486;BME280;13449;49.374;8.584;2023-02-19T10:47:01;101282.25;;;12.29;80.47
24486;BME280;13449;49.374;8.584;2023-02-19T10:49:31;101294.16;;;12.36;80.25
24486;BME280;13449;49.374;8.584;2023-02-19T10:52:12;101292.78;;;12.40;79.72
24486;BME280;13449;49.374;8.584;2023-02-19T10:55:24;101292.56;;;12.49;79.71
24486;BME280;13449;49.374;8.584;2023-02-19T10:57:45;101308.56;;;12.60;78.81
24486;BME280;13449;49.374;8.584;2023-02-19T11:02:42;101307.72;;;12.60;77.45
24486;BME280;13449;49.374;8.584;2023-02-19T11:07:46;101317.84;;;12.59;76.44
24486;BME280;13449;49.374;8.584;2023-02-19T11:10:28;101315.03;;;12.68;76.46
24486;BME280;13449;49.374;8.584;2023-02-19T11:13:03;101331.72;;;12.81;75.42
24486;BME280;13449;49.374;8.584;2023-02-19T11:15:32;101344.19;;;12.83;73.99
24486;BME280;13449;49.374;8.584;2023-02-19T11:18:24;101357.72;;;12.85;73.03
24486;BME280;13449;49.374;8.584;2023-02-19T11:20:57;101356.03;;;12.76;72.96
24486;BME280;13449;49.374;8.584;2023-02-19T11:26:04;101364.09;;;12.77;73.40
24486;BME280;13449;49.374;8.584;2023-02-19T11:28:35;101367.50;;;12.71;73.66
24486;BME280;13449;49.374;8.584;2023-02-19T11:33:53;101364.91;;;12.86;73.92
24486;BME280;13449;49.374;8.584;2023-02-19T11:36:31;101358.94;;;13.05;74.52
24486;BME280;13449;49.374;8.584;2023-02-19T11:39:06;101371.56;;;13.22;72.62
24486;BME280;13449;49.374;8.584;2023-02-19T11:44:41;101355.22;;;12.98;71.46
24486;BME280;13449;49.374;8.584;2023-02-19T11:50:01;101344.94;;;12.77;73.02
24486;BME280;13449;49.374;8.584;2023-02-19T11:52:55;101328.88;;;12.74;73.57
24486;BME280;13449;49.374;8.584;2023-02-19T12:09:34;101350.44;;;13.31;72.15
24486;BME280;13449;49.374;8.584;2023-02-19T12:21:09;101352.47;;;13.74;69.59
24486;BME280;13449;49.374;8.584;2023-02-19T12:29:57;101331.78;;;13.72;71.04
24486;BME280;13449;49.374;8.584;2023-02-19T12:43:21;101339.13;;;12.72;74.37
24486;BME280;13449;49.374;8.584;2023-02-19T12:46:05;101328.06;;;12.66;75.09
24486;BME280;13449;49.374;8.584;2023-02-19T12:48:54;101322.25;;;12.60;75.48
24486;BME280;13449;49.374;8.584;2023-02-19T12:51:49;101324.28;;;12.67;75.78
24486;BME280;13449;49.374;8.584;2023-02-19T12:54:41;101333.06;;;12.54;75.06
24486;BME280;13449;49.374;8.584;2023-02-19T12:57:12;101327.75;;;12.52;75.76
24486;BME280;13449;49.374;8.584;2023-02-19T13:02:49;101314.28;;;12.51;75.56
24486;BME280;13449;49.374;8.584;2023-02-19T13:05:39;101325.16;;;12.67;74.53
24486;BME280;13449;49.374;8.584;2023-02-19T13:08:33;101324.19;;;12.83;73.71
24486;BME280;13449;49.374;8.584;2023-02-19T13:11:13;101338.31;;;12.94;72.44
24486;BME280;13449;49.374;8.584;2023-02-19T13:13:59;101344.28;;;12.98;70.67
24486;BME280;13449;49.374;8.584;2023-02-19T13:16:32;101349.63;;;12.91;70.15
24486;BME280;13449;49.374;8.584;2023-02-19T13:19:03;101348.06;;;12.97;69.71
24486;BME280;13449;49.374;8.584;2023-02-19T13:21:33;101344.38;;;13.13;69.60
24486;BME280;13449;49.374;8.584;2023-02-19T13:38:01;101349.22;;;13.33;66.84
24486;BME280;13449;49.374;8.584;2023-02-19T13:40:34;101338.00;;;13.43;67.21
24486;BME280;13449;49.374;8.584;2023-02-19T13:43:04;101345.06;;;13.37;66.36
24486;BME280;13449;49.374;8.584;2023-02-19T13:45:36;101354.25;;;13.22;64.89
24486;BME280;13449;49.374;8.584;2023-02-19T13:53:58;101320.09;;;13.32;67.31
24486;BME280;13449;49.374;8.584;2023-02-19T14:04:52;101319.47;;;13.30;66.98
24486;BME280;13449;49.374;8.584;2023-02-19T14:10:03;101316.09;;;13.20;67.31
24486;BME280;13449;49.374;8.584;2023-02-19T14:12:34;101330.53;;;13.14;66.82
24486;BME280;13449;49.374;8.584;2023-02-19T14:18:44;101348.91;;;12.97;64.94
24486;BME280;13449;49.374;8.584;2023-02-19T14:21:34;101344.66;;;12.95;65.37
24486;BME280;13449;49.374;8.584;2023-02-19T14:24:10;101339.91;;;12.89;66.24
24486;BME280;13449;49.374;8.584;2023-02-19T14:26:38;101347.59;;;12.93;66.51
24486;BME280;13449;49.374;8.584;2023-02-19T14:29:07;101337.66;;;12.92;67.14
24486;BME280;13449;49.374;8.584;2023-02-19T14:31:43;101377.94;;;12.76;65.40
24486;BME280;13449;49.374;8.584;2023-02-19T14:36:54;101359.09;;;12.81;66.46
24486;BME280;13449;49.374;8.584;2023-02-19T14:39:34;101363.72;;;12.80;66.82
24486;BME280;13449;49.374;8.584;2023-02-19T14:42:22;101376.59;;;12.72;66.26
24486;BME280;13449;49.374;8.584;2023-02-19T14:45:02;101377.97;;;12.68;66.52
24486;BME280;13449;49.374;8.584;2023-02-19T14:47:33;101377.84;;;12.61;65.73
24486;BME280;13449;49.374;8.584;2023-02-19T14:50:11;101367.25;;;12.58;66.82
24486;BME280;13449;49.374;8.584;2023-02-19T14:52:46;101364.34;;;12.59;67.10
24486;BME280;13449;49.374;8.584;2023-02-19T14:57:51;101353.75;;;12.48;67.52
24486;BME280;13449;49.374;8.584;2023-02-19T15:00:27;101347.78;;;12.45;68.62
24486;BME280;13449;49.374;8.584;2023-02-19T15:02:56;101358.78;;;12.37;68.01
24486;BME280;13449;49.374;8.584;2023-02-19T15:05:32;101358.63;;;12.30;69.12
24486;BME280;13449;49.374;8.584;2023-02-19T15:08:08;101349.91;;;12.27;71.54
24486;BME280;13449;49.374;8.584;2023-02-19T15:10:37;101358.13;;;12.27;72.64
24486;BME280;13449;49.374;8.584;2023-02-19T15:13:06;101347.72;;;12.22;74.81
24486;BME280;13449;49.374;8.584;2023-02-19T15:15:43;101356.47;;;12.18;75.21
24486;BME280;13449;49.374;8.584;2023-02-19T15:18:24;101360.56;;;12.14;75.69
24486;BME280;13449;49.374;8.584;2023-02-19T15:20:59;101370.13;;;12.09;75.00
24486;BME280;13449;49.374;8.584;2023-02-19T15:23:27;101367.56;;;12.08;75.42
24486;BME280;13449;49.374;8.584;2023-02-19T15:25:56;101371.88;;;12.02;75.46